createdAt,value
2023-03-28T00:01:02.447Z,0.17
2023-03-28T00:03:35.960Z,0.07
2023-03-28T00:06:05.652Z,0.03
2023-03-28T00:08:33.895Z,-0.02
2023-03-28T00:11:07.598Z,0.00
2023-03-28T00:13:37.724Z,0.04
2023-03-28T00:16:10.175Z,-0.04
2023-03-28T00:18:39.210Z,0.23
2023-03-28T00:21:19.590Z,0.16
2023-03-28T00:23:52.383Z,0.36
2023-03-28T00:26:26.584Z,0.31
2023-03-28T00:28:56.643Z,0.32
2023-03-28T00:31:25.927Z,0.44
2023-03-28T00:33:54.054Z,0.54
2023-03-28T00:36:26.356Z,0.42
2023-03-28T00:38:54.794Z,0.28
2023-03-28T00:41:23.659Z,0.21
2023-03-28T00:43:56.184Z,0.27
2023-03-28T00:46:27.350Z,0.22
2023-03-28T00:48:58.876Z,0.39
2023-03-28T00:51:31.335Z,0.32
2023-03-28T00:54:01.069Z,0.34
2023-03-28T00:56:32.196Z,0.29
2023-03-28T00:59:06.609Z,0.33
2023-03-28T01:01:35.161Z,0.40
2023-03-28T01:04:10.359Z,0.32
2023-03-28T01:06:42.267Z,0.32
2023-03-28T01:09:14.995Z,0.27
2023-03-28T01:11:49.081Z,0.35
2023-03-28T01:14:21.710Z,0.51
2023-03-28T01:16:51.321Z,0.35
2023-03-28T01:19:28.027Z,0.39
2023-03-28T01:22:31.656Z,0.49
2023-03-28T01:25:30.490Z,0.33
2023-03-28T01:28:05.441Z,0.32
2023-03-28T01:31:03.316Z,0.02
2023-03-28T01:34:23.774Z,0.02
2023-03-28T01:37:05.641Z,0.02
2023-03-28T01:40:01.659Z,0.03
2023-03-28T01:42:44.158Z,-0.05
2023-03-28T01:45:19.246Z,-0.19
2023-03-28T01:47:58.881Z,-0.19
2023-03-28T01:50:31.501Z,-0.16
2023-03-28T01:53:07.860Z,-0.10
2023-03-28T01:55:42.310Z,-0.05
2023-03-28T01:58:19.531Z,-0.12
2023-03-28T02:01:00.199Z,-0.39
2023-03-28T02:03:33.075Z,-0.33
2023-03-28T02:06:08.267Z,-0.36
2023-03-28T02:08:40.266Z,-0.42
2023-03-28T02:11:36.299Z,-0.44
2023-03-28T02:14:20.077Z,-0.41
2023-03-28T02:17:04.582Z,-0.53
2023-03-28T02:20:08.836Z,-0.62
2023-03-28T02:23:12.407Z,-0.59
2023-03-28T02:26:02.354Z,-0.55
2023-03-28T02:28:52.616Z,-0.64
2023-03-28T02:31:38.926Z,-0.71
2023-03-28T02:34:06.776Z,-0.66
2023-03-28T02:36:45.912Z,-0.50
2023-03-28T02:39:29.546Z,-0.61
2023-03-28T02:42:20.152Z,-0.70
2023-03-28T02:45:15.224Z,-0.78
2023-03-28T02:47:53.037Z,-0.90
2023-03-28T02:50:27.989Z,-0.91
2023-03-28T02:53:04.192Z,-0.96
2023-03-28T02:55:38.518Z,-0.87
2023-03-28T02:58:22.673Z,-0.81
2023-03-28T03:00:51.282Z,-0.86
2023-03-28T03:03:19.097Z,-0.80
2023-03-28T03:05:46.970Z,-0.57
2023-03-28T03:08:15.663Z,-0.70
2023-03-28T03:10:43.569Z,-0.78
2023-03-28T03:13:11.332Z,-0.69
2023-03-28T03:15:41.431Z,-0.89
2023-03-28T03:18:21.372Z,-0.90
2023-03-28T03:20:50.394Z,-0.92
2023-03-28T03:23:21.850Z,-0.70
2023-03-28T03:25:51.800Z,-0.74
2023-03-28T03:28:24.764Z,-0.77
2023-03-28T03:30:54.131Z,-0.88
2023-03-28T03:33:38.566Z,-0.92
2023-03-28T03:36:09.708Z,-0.75
2023-03-28T03:38:37.702Z,-0.78
2023-03-28T03:41:06.104Z,-0.83
2023-03-28T03:43:34.365Z,-0.82
2023-03-28T03:46:03.888Z,-0.85
2023-03-28T03:48:31.953Z,-0.78
2023-03-28T03:51:01.735Z,-0.91
2023-03-28T03:53:29.578Z,-0.81
2023-03-28T03:56:09.107Z,-0.78
2023-03-28T03:59:03.020Z,-0.90
2023-03-28T04:01:34.911Z,-0.97
2023-03-28T04:04:32.208Z,-0.87
2023-03-28T04:07:16.393Z,-0.94
2023-03-28T04:09:46.612Z,-0.99
2023-03-28T04:12:15.869Z,-1.10
2023-03-28T04:14:47.208Z,-1.22
2023-03-28T04:17:45.118Z,-1.16
2023-03-28T04:20:17.879Z,-0.93
2023-03-28T04:23:08.323Z,-0.88
2023-03-28T04:25:37.018Z,-1.20
2023-03-28T04:28:13.112Z,-1.32
2023-03-28T04:30:58.129Z,-1.28
2023-03-28T04:33:46.370Z,-1.31
2023-03-28T04:36:18.346Z,-1.19
2023-03-28T04:38:52.947Z,-1.35
2023-03-28T04:41:56.187Z,-1.23
2023-03-28T04:44:53.010Z,-1.30
2023-03-28T04:47:21.370Z,-1.32
2023-03-28T04:49:50.726Z,-1.24
2023-03-28T04:52:18.742Z,-1.17
2023-03-28T04:54:48.560Z,-1.23
2023-03-28T04:57:17.692Z,-1.25
2023-03-28T04:59:48.790Z,-1.21
2023-03-28T05:02:31.139Z,-1.29
2023-03-28T05:05:06.767Z,-1.29
2023-03-28T05:07:34.770Z,-1.32
2023-03-28T05:10:02.616Z,-1.33
2023-03-28T05:12:36.273Z,-1.31
2023-03-28T05:15:06.206Z,-1.40
2023-03-28T05:17:40.998Z,-1.36
2023-03-28T05:20:21.152Z,-1.32
2023-03-28T05:22:53.624Z,-1.31
2023-03-28T05:25:21.876Z,-1.31
2023-03-28T05:27:50.497Z,-1.08
2023-03-28T05:30:18.786Z,-1.09
2023-03-28T05:32:49.078Z,-0.91
2023-03-28T05:35:17.653Z,-0.62
2023-03-28T05:37:47.615Z,-0.80
2023-03-28T05:40:16.831Z,-0.62
2023-03-28T05:42:44.940Z,-0.93
2023-03-28T05:45:16.097Z,-0.99
2023-03-28T05:47:57.335Z,-1.10
2023-03-28T05:50:26.323Z,-0.84
2023-03-28T05:53:01.522Z,-0.88
2023-03-28T05:55:29.409Z,-0.81
2023-03-28T05:57:58.073Z,-0.83
2023-03-28T06:00:33.122Z,-0.74
2023-03-28T06:03:01.165Z,-0.71
2023-03-28T06:05:35.857Z,-0.73
2023-03-28T06:08:09.560Z,-0.73
2023-03-28T06:10:37.944Z,-0.65
2023-03-28T06:13:32.414Z,-0.58
2023-03-28T06:16:01.027Z,-0.54
2023-03-28T06:18:32.565Z,-0.51
2023-03-28T06:21:00.797Z,-0.35
2023-03-28T06:23:30.198Z,-0.29
2023-03-28T06:25:58.124Z,-0.24
2023-03-28T06:28:32.146Z,-0.21
2023-03-28T06:31:16.990Z,-0.25
2023-03-28T06:33:45.557Z,-0.07
2023-03-28T06:36:15.890Z,-0.10
2023-03-28T06:38:45.867Z,-0.07
2023-03-28T06:41:14.140Z,-0.08
2023-03-28T06:43:42.373Z,0.04
2023-03-28T06:46:30.737Z,0.00
2023-03-28T06:48:59.354Z,0.16
2023-03-28T06:51:30.107Z,0.23
2023-03-28T06:53:59.556Z,0.28
2023-03-28T06:56:31.994Z,0.22
2023-03-28T06:59:00.582Z,0.38
2023-03-28T07:01:36.724Z,0.50
2023-03-28T07:04:08.108Z,0.44
2023-03-28T07:06:37.304Z,0.49
2023-03-28T07:09:07.434Z,0.63
2023-03-28T07:11:42.246Z,0.74
2023-03-28T07:14:10.697Z,0.87
2023-03-28T07:16:38.554Z,0.81
2023-03-28T07:19:06.471Z,0.70
2023-03-28T07:21:37.602Z,0.89
2023-03-28T07:24:08.134Z,0.81
2023-03-28T07:26:47.314Z,0.93
2023-03-28T07:29:17.462Z,0.91
2023-03-28T07:31:45.359Z,0.82
2023-03-28T07:34:13.509Z,1.18
2023-03-28T07:36:42.019Z,1.11
2023-03-28T07:39:16.845Z,1.27
2023-03-28T07:41:44.810Z,1.54
2023-03-28T07:44:12.795Z,2.23
2023-03-28T07:46:40.673Z,2.42
2023-03-28T07:49:09.132Z,2.60
2023-03-28T07:51:37.580Z,2.50
2023-03-28T07:54:05.928Z,2.66
2023-03-28T07:56:35.533Z,2.40
2023-03-28T07:59:23.862Z,2.94
2023-03-28T08:01:54.236Z,2.69
2023-03-28T08:04:22.393Z,2.75
2023-03-28T08:07:04.763Z,2.13
2023-03-28T08:09:32.917Z,2.25
2023-03-28T08:12:19.636Z,2.03
2023-03-28T08:14:48.923Z,2.33
2023-03-28T08:17:22.818Z,2.49
2023-03-28T08:19:52.090Z,2.66
2023-03-28T08:22:28.883Z,2.76
2023-03-28T08:25:16.832Z,2.90
2023-03-28T08:27:47.131Z,2.62
2023-03-28T08:30:15.420Z,2.74
2023-03-28T08:32:54.817Z,2.92
2023-03-28T08:35:23.039Z,2.83
2023-03-28T08:37:54.408Z,2.51
2023-03-28T08:40:23.363Z,2.54
2023-03-28T08:43:03.781Z,2.74
2023-03-28T08:45:51.367Z,2.39
2023-03-28T08:48:24.319Z,2.20
2023-03-28T08:50:59.226Z,2.15
2023-03-28T08:53:35.372Z,2.02
2023-03-28T08:56:07.160Z,1.88
2023-03-28T08:58:47.735Z,2.16
2023-03-28T09:01:16.918Z,2.13
2023-03-28T09:03:45.353Z,2.28
2023-03-28T09:06:28.064Z,2.33
2023-03-28T09:09:11.514Z,2.23
2023-03-28T09:11:54.234Z,2.24
2023-03-28T09:14:51.988Z,2.28
2023-03-28T09:17:30.024Z,2.28
2023-03-28T09:20:11.331Z,2.10
2023-03-28T09:23:13.835Z,2.18
2023-03-28T09:26:17.039Z,2.04
2023-03-28T09:28:53.241Z,2.28
2023-03-28T09:31:28.077Z,2.24
2023-03-28T09:34:00.410Z,2.16
2023-03-28T09:36:49.634Z,2.24
2023-03-28T09:39:33.366Z,2.28
2023-03-28T09:42:07.069Z,2.26
2023-03-28T09:44:58.509Z,2.36
2023-03-28T09:47:47.819Z,2.52
2023-03-28T09:50:21.274Z,2.90
2023-03-28T09:52:56.722Z,3.52
2023-03-28T09:55:27.167Z,4.00
2023-03-28T09:58:01.585Z,3.83
2023-03-28T10:00:30.518Z,3.64
2023-03-28T10:03:29.417Z,3.69
2023-03-28T10:05:58.928Z,3.41
2023-03-28T10:08:40.190Z,3.40
2023-03-28T10:11:22.688Z,3.20
2023-03-28T10:13:52.931Z,3.32
2023-03-28T10:16:27.017Z,3.35
2023-03-28T10:19:21.916Z,3.43
2023-03-28T10:22:08.878Z,3.90
2023-03-28T10:24:40.721Z,3.78
2023-03-28T10:27:16.230Z,4.10
2023-03-28T10:29:45.142Z,3.89
2023-03-28T10:32:24.720Z,3.78
2023-03-28T10:35:25.066Z,3.60
2023-03-28T10:38:05.843Z,3.62
2023-03-28T10:41:03.457Z,3.68
2023-03-28T10:44:19.675Z,3.24
2023-03-28T10:46:57.641Z,3.18
2023-03-28T10:49:37.918Z,3.56
2023-03-28T10:52:23.141Z,3.65
2023-03-28T10:55:06.397Z,3.61
2023-03-28T10:58:08.791Z,3.78
2023-03-28T11:00:54.269Z,4.15
2023-03-28T11:03:40.238Z,4.40
2023-03-28T11:06:15.048Z,4.28
2023-03-28T11:08:54.759Z,4.06
2023-03-28T11:11:57.340Z,4.05
2023-03-28T11:14:34.575Z,3.90
2023-03-28T11:17:13.393Z,3.95
2023-03-28T11:20:08.707Z,3.85
2023-03-28T11:23:03.028Z,4.20
2023-03-28T11:25:46.785Z,4.65
2023-03-28T11:28:46.595Z,4.30
2023-03-28T11:31:23.614Z,4.60
2023-03-28T11:34:04.049Z,4.67
2023-03-28T11:36:37.220Z,4.66
2023-03-28T11:39:14.625Z,5.07
2023-03-28T11:41:47.737Z,5.51
2023-03-28T11:44:32.909Z,5.67
2023-03-28T11:47:08.812Z,5.01
2023-03-28T11:49:43.923Z,5.59
2023-03-28T11:52:36.694Z,6.01
2023-03-28T11:55:15.029Z,6.44
2023-03-28T11:57:53.620Z,6.55
2023-03-28T12:00:33.956Z,5.59
2023-03-28T12:03:15.066Z,5.31
2023-03-28T12:06:00.047Z,5.01
2023-03-28T12:08:36.866Z,5.07
2023-03-28T12:11:08.486Z,5.30
2023-03-28T12:14:08.817Z,5.42
2023-03-28T12:16:47.107Z,6.20
2023-03-28T12:19:21.774Z,5.96
2023-03-28T12:22:00.777Z,5.40
2023-03-28T12:24:46.725Z,6.09
2023-03-28T12:27:28.194Z,6.27
2023-03-28T12:30:05.004Z,6.60
2023-03-28T12:32:42.174Z,6.19
2023-03-28T12:35:18.024Z,6.00
2023-03-28T12:38:04.451Z,6.38
2023-03-28T12:40:50.187Z,6.11
2023-03-28T12:43:24.647Z,6.65
2023-03-28T12:46:00.382Z,6.88
2023-03-28T12:48:35.823Z,6.86
2023-03-28T12:51:13.699Z,6.98
2023-03-28T12:53:47.431Z,6.66
2023-03-28T12:56:17.379Z,6.66
2023-03-28T12:58:48.853Z,7.24
2023-03-28T13:01:47.990Z,7.39
2023-03-28T13:04:45.814Z,6.90
2023-03-28T13:07:31.945Z,6.72
2023-03-28T13:10:07.404Z,6.81
2023-03-28T13:12:47.369Z,7.62
2023-03-28T13:15:31.871Z,7.31
2023-03-28T13:18:30.162Z,7.06
2023-03-28T13:20:59.594Z,7.05
2023-03-28T13:23:34.225Z,6.94
2023-03-28T13:26:03.943Z,6.96
2023-03-28T13:28:34.907Z,7.06
2023-03-28T13:31:08.816Z,6.91
2023-03-28T13:33:40.092Z,7.15
2023-03-28T13:36:30.764Z,7.56
2023-03-28T13:39:19.684Z,7.70
2023-03-28T13:42:01.111Z,7.84
2023-03-28T13:44:41.377Z,7.61
2023-03-28T13:47:18.230Z,7.48
2023-03-28T13:49:51.533Z,7.52
2023-03-28T13:52:22.725Z,7.64
2023-03-28T13:54:54.177Z,7.80
2023-03-28T13:57:25.873Z,8.04
2023-03-28T13:59:56.724Z,7.51
2023-03-28T14:02:33.458Z,7.82
2023-03-28T14:05:14.589Z,7.85
2023-03-28T14:07:42.800Z,7.77
2023-03-28T14:10:30.025Z,7.77
2023-03-28T14:13:01.454Z,7.72
2023-03-28T14:15:31.839Z,8.16
2023-03-28T14:18:01.993Z,7.90
2023-03-28T14:20:34.674Z,7.83
2023-03-28T14:23:02.591Z,7.44
2023-03-28T14:25:34.182Z,7.31
2023-03-28T14:28:08.579Z,7.36
2023-03-28T14:30:40.534Z,7.25
2023-03-28T14:33:18.643Z,7.35
2023-03-28T14:35:57.303Z,7.45
2023-03-28T14:38:30.394Z,7.30
2023-03-28T14:41:07.233Z,7.20
2023-03-28T14:43:35.600Z,7.58
2023-03-28T14:46:08.194Z,7.51
2023-03-28T14:48:38.189Z,7.78
2023-03-28T14:51:08.303Z,7.51
2023-03-28T14:53:37.886Z,7.29
2023-03-28T14:56:10.431Z,7.15
2023-03-28T14:58:41.299Z,6.85
2023-03-28T15:01:14.188Z,7.08
2023-03-28T15:03:46.888Z,6.97
2023-03-28T15:06:18.585Z,7.02
2023-03-28T15:08:47.294Z,7.15
2023-03-28T15:11:20.022Z,7.34
2023-03-28T15:13:50.481Z,7.07
2023-03-28T15:16:23.160Z,6.96
2023-03-28T15:18:58.342Z,7.02
2023-03-28T15:21:27.609Z,7.36
2023-03-28T15:24:01.493Z,7.22
2023-03-28T15:26:35.148Z,7.05
2023-03-28T15:29:04.047Z,7.36
2023-03-28T15:31:32.509Z,7.43
2023-03-28T15:34:00.620Z,7.57
2023-03-28T15:36:34.653Z,7.35
2023-03-28T15:39:11.733Z,7.31
2023-03-28T15:41:46.079Z,7.50
2023-03-28T15:44:28.026Z,7.66
2023-03-28T15:46:59.155Z,7.72
2023-03-28T15:49:27.378Z,7.73
2023-03-28T15:52:02.227Z,7.78
2023-03-28T15:54:32.214Z,8.57
2023-03-28T15:57:03.056Z,8.72
2023-03-28T15:59:34.830Z,9.02
2023-03-28T16:02:21.584Z,9.10
2023-03-28T16:05:00.308Z,8.85
2023-03-28T16:07:34.683Z,8.63
2023-03-28T16:10:03.096Z,8.50
2023-03-28T16:12:33.673Z,8.41
2023-03-28T16:15:32.765Z,8.36
2023-03-28T16:18:16.000Z,8.07
2023-03-28T16:20:51.393Z,8.04
2023-03-28T16:23:20.700Z,8.47
2023-03-28T16:25:48.941Z,8.85
2023-03-28T16:28:19.341Z,8.43
2023-03-28T16:30:47.547Z,8.71
2023-03-28T16:33:15.693Z,8.91
2023-03-28T16:35:43.604Z,8.55
2023-03-28T16:38:12.496Z,8.83
2023-03-28T16:40:42.246Z,8.67
2023-03-28T16:43:15.418Z,8.36
2023-03-28T16:45:48.051Z,8.18
2023-03-28T16:48:16.219Z,8.06
2023-03-28T16:50:51.436Z,8.02
2023-03-28T16:53:19.295Z,7.97
2023-03-28T16:55:49.488Z,7.82
2023-03-28T16:58:17.429Z,7.66
2023-03-28T17:00:47.246Z,7.52
2023-03-28T17:03:17.038Z,7.59
2023-03-28T17:05:45.209Z,7.39
2023-03-28T17:08:12.986Z,7.31
2023-03-28T17:10:42.725Z,7.18
2023-03-28T17:13:12.299Z,6.90
2023-03-28T17:15:40.170Z,6.89
2023-03-28T17:18:08.043Z,6.83
2023-03-28T17:20:36.148Z,6.81
2023-03-28T17:23:04.247Z,6.81
2023-03-28T17:25:36.785Z,6.70
2023-03-28T17:28:09.846Z,6.56
2023-03-28T17:30:39.968Z,6.96
2023-03-28T17:33:07.939Z,6.81
2023-03-28T17:35:35.887Z,6.68
2023-03-28T17:38:03.840Z,6.65
2023-03-28T17:40:32.103Z,6.48
2023-03-28T17:42:59.934Z,6.37
2023-03-28T17:45:27.828Z,6.25
2023-03-28T17:47:57.261Z,6.02
2023-03-28T17:50:25.382Z,5.84
2023-03-28T17:52:53.196Z,5.64
2023-03-28T17:55:21.289Z,5.54
2023-03-28T17:57:49.151Z,5.38
2023-03-28T18:00:18.029Z,5.20
2023-03-28T18:02:47.349Z,5.01
2023-03-28T18:05:36.667Z,4.87
2023-03-28T18:08:04.612Z,4.81
2023-03-28T18:10:32.717Z,4.81
2023-03-28T18:13:00.874Z,4.83
2023-03-28T18:15:28.835Z,4.88
2023-03-28T18:17:56.756Z,4.86
2023-03-28T18:20:25.261Z,4.90
2023-03-28T18:22:58.797Z,4.79
2023-03-28T18:25:26.822Z,4.70
2023-03-28T18:27:54.832Z,4.59
2023-03-28T18:30:22.841Z,4.51
2023-03-28T18:32:50.795Z,4.46
2023-03-28T18:35:19.127Z,4.45
2023-03-28T18:37:49.260Z,4.44
2023-03-28T18:40:19.071Z,4.47
2023-03-28T18:42:47.036Z,4.34
2023-03-28T18:45:14.899Z,4.26
2023-03-28T18:47:44.151Z,4.18
2023-03-28T18:50:12.685Z,4.01
2023-03-28T18:52:42.964Z,3.91
2023-03-28T18:55:12.237Z,3.71
2023-03-28T18:57:44.861Z,3.69
2023-03-28T19:00:19.273Z,3.60
2023-03-28T19:02:47.945Z,3.52
2023-03-28T19:05:17.173Z,3.45
2023-03-28T19:07:48.681Z,3.45
2023-03-28T19:10:17.470Z,3.75
2023-03-28T19:12:47.318Z,3.60
2023-03-28T19:15:17.830Z,3.43
2023-03-28T19:17:48.194Z,3.24
2023-03-28T19:20:16.856Z,3.28
2023-03-28T19:22:48.773Z,3.15
2023-03-28T19:25:16.794Z,3.06
2023-03-28T19:27:48.869Z,3.02
2023-03-28T19:30:17.259Z,2.96
2023-03-28T19:32:47.294Z,2.88
2023-03-28T19:35:15.365Z,2.75
2023-03-28T19:37:43.948Z,2.69
2023-03-28T19:40:17.041Z,2.69
2023-03-28T19:42:46.641Z,2.70
2023-03-28T19:45:14.672Z,2.75
2023-03-28T19:47:46.668Z,2.74
2023-03-28T19:50:14.730Z,2.76
2023-03-28T19:52:42.913Z,3.15
2023-03-28T19:55:11.211Z,3.39
2023-03-28T19:57:39.586Z,3.38
2023-03-28T20:00:12.746Z,3.72
2023-03-28T20:02:41.345Z,3.31
2023-03-28T20:05:10.017Z,3.12
2023-03-28T20:07:38.297Z,3.17
2023-03-28T20:10:07.388Z,2.97
2023-03-28T20:12:39.596Z,2.87
2023-03-28T20:15:16.321Z,2.82
2023-03-28T20:17:44.322Z,2.89
2023-03-28T20:20:12.893Z,3.26
2023-03-28T20:22:40.782Z,3.59
2023-03-28T20:25:09.384Z,3.57
2023-03-28T20:27:37.754Z,3.27
2023-03-28T20:30:11.237Z,3.09
2023-03-28T20:32:39.165Z,2.96
2023-03-28T20:35:07.870Z,2.96
2023-03-28T20:37:36.852Z,2.94
2023-03-28T20:40:10.900Z,3.14
2023-03-28T20:42:40.772Z,3.08
2023-03-28T20:45:14.096Z,3.26
2023-03-28T20:47:43.098Z,3.68
2023-03-28T20:50:11.946Z,3.38
2023-03-28T20:52:40.569Z,3.31
2023-03-28T20:55:10.181Z,3.29
2023-03-28T20:57:45.009Z,3.36
2023-03-28T21:00:17.410Z,3.37
2023-03-28T21:02:53.492Z,3.26
2023-03-28T21:05:22.029Z,3.71
2023-03-28T21:07:53.647Z,3.39
2023-03-28T21:10:21.738Z,3.38
2023-03-28T21:12:50.848Z,3.25
2023-03-28T21:15:20.267Z,3.07
2023-03-28T21:17:49.503Z,3.06
2023-03-28T21:20:18.729Z,3.20
2023-03-28T21:22:46.686Z,3.22
2023-03-28T21:25:14.624Z,3.12
2023-03-28T21:27:42.407Z,3.04
2023-03-28T21:30:11.758Z,2.83
2023-03-28T21:32:41.006Z,2.83
2023-03-28T21:35:10.278Z,3.07
2023-03-28T21:37:38.160Z,3.24
2023-03-28T21:40:08.530Z,3.38
2023-03-28T21:42:36.388Z,3.23
2023-03-28T21:45:04.549Z,3.34
2023-03-28T21:47:32.458Z,3.37
2023-03-28T21:50:03.125Z,3.42
2023-03-28T21:52:30.999Z,3.51
2023-03-28T21:54:58.756Z,3.49
2023-03-28T21:57:26.538Z,3.22
2023-03-28T21:59:54.342Z,3.19
2023-03-28T22:02:22.185Z,3.10
2023-03-28T22:04:50.174Z,3.31
2023-03-28T22:07:20.197Z,3.31
2023-03-28T22:09:50.956Z,3.38
2023-03-28T22:12:18.767Z,3.47
2023-03-28T22:14:46.846Z,3.43
2023-03-28T22:17:14.972Z,3.40
2023-03-28T22:19:42.760Z,3.48
2023-03-28T22:22:11.249Z,3.42
2023-03-28T22:24:40.459Z,3.65
2023-03-28T22:27:09.645Z,3.75
2023-03-28T22:29:37.526Z,5.85
2023-03-28T22:32:05.698Z,4.61
2023-03-28T22:34:33.621Z,4.09
2023-03-28T22:37:01.539Z,3.64
2023-03-28T22:39:29.350Z,3.54
2023-03-28T22:41:58.649Z,3.37
2023-03-28T22:44:27.301Z,3.35
2023-03-28T22:47:01.970Z,3.19
2023-03-28T22:49:30.050Z,3.41
2023-03-28T22:52:01.956Z,3.58
2023-03-28T22:54:30.241Z,3.35
2023-03-28T22:57:00.140Z,3.41
2023-03-28T22:59:28.590Z,3.49
2023-03-28T23:01:56.844Z,3.40
2023-03-28T23:04:24.745Z,3.23
2023-03-28T23:06:52.777Z,3.28
2023-03-28T23:09:21.060Z,3.37
2023-03-28T23:11:48.971Z,3.36
2023-03-28T23:14:18.244Z,3.44
2023-03-28T23:16:46.086Z,3.38
2023-03-28T23:19:14.286Z,3.42
2023-03-28T23:21:42.920Z,3.16
2023-03-28T23:24:11.866Z,3.22
2023-03-28T23:26:41.645Z,3.40
2023-03-28T23:29:09.423Z,3.45
2023-03-28T23:31:38.573Z,3.52
2023-03-28T23:34:07.278Z,3.41
2023-03-28T23:36:35.110Z,3.30
2023-03-28T23:39:03.086Z,3.26
2023-03-28T23:41:31.232Z,3.33
2023-03-28T23:43:59.021Z,3.41
2023-03-28T23:46:26.846Z,3.35
2023-03-28T23:48:56.081Z,3.45
2023-03-28T23:51:24.438Z,3.16
2023-03-28T23:53:52.281Z,3.14
2023-03-28T23:56:20.086Z,3.50
2023-03-28T23:58:47.920Z,3.66
